sensor_id;sensor_type;location;lat;lon;timestamp;pressure;altitude;pressure_sealevel;temperature;humidity
33151;BME280;19508;42.578;23.416;2023-07-29T00:01:58;93571.97;;;18.31;57.21
33151;BME280;19508;42.578;23.416;2023-07-29T00:04:23;93572.78;;;18.18;57.57
33151;BME280;19508;42.578;23.416;2023-07-29T00:06:49;93578.25;;;18.18;57.28
33151;BME280;19508;42.578;23.416;2023-07-29T00:09:14;93578.69;;;18.12;57.67
33151;BME280;19508;42.578;23.416;2023-07-29T00:11:39;93573.50;;;18.10;57.51
33151;BME280;19508;42.578;23.416;2023-07-29T00:14:05;93580.69;;;18.06;58.28
33151;BME280;19508;42.578;23.416;2023-07-29T00:16:30;93574.84;;;17.99;58.48
33151;BME280;19508;42.578;23.416;2023-07-29T00:18:56;93571.41;;;17.93;58.30
33151;BME280;19508;42.578;23.416;2023-07-29T00:21:21;93571.63;;;17.83;59.05
33151;BME280;19508;42.578;23.416;2023-07-29T00:23:47;93571.34;;;17.85;59.20
33151;BME280;19508;42.578;23.416;2023-07-29T00:26:12;93573.88;;;17.81;59.09
33151;BME280;19508;42.578;23.416;2023-07-29T00:28:37;93564.41;;;17.79;59.44
33151;BME280;19508;42.578;23.416;2023-07-29T00:31:03;93568.03;;;17.74;59.49
33151;BME280;19508;42.578;23.416;2023-07-29T00:33:28;93568.63;;;17.71;59.59
33151;BME280;19508;42.578;23.416;2023-07-29T00:35:54;93562.53;;;17.60;59.90
33151;BME280;19508;42.578;23.416;2023-07-29T00:38:21;93569.81;;;17.51;60.70
33151;BME280;19508;42.578;23.416;2023-07-29T00:40:47;93571.84;;;17.45;61.08
33151;BME280;19508;42.578;23.416;2023-07-29T00:43:12;93576.16;;;17.46;60.71
33151;BME280;19508;42.578;23.416;2023-07-29T00:45:38;93569.81;;;17.37;61.21
33151;BME280;19508;42.578;23.416;2023-07-29T00:48:04;93567.97;;;17.33;61.13
33151;BME280;19508;42.578;23.416;2023-07-29T00:50:31;93562.13;;;17.26;61.26
33151;BME280;19508;42.578;23.416;2023-07-29T00:52:57;93570.22;;;17.31;61.30
33151;BME280;19508;42.578;23.416;2023-07-29T00:55:23;93582.09;;;17.21;61.66
33151;BME280;19508;42.578;23.416;2023-07-29T00:57:50;93562.13;;;17.12;62.09
33151;BME280;19508;42.578;23.416;2023-07-29T01:00:18;93571.28;;;17.16;62.01
33151;BME280;19508;42.578;23.416;2023-07-29T01:02:43;93570.78;;;17.14;62.15
33151;BME280;19508;42.578;23.416;2023-07-29T01:05:11;93573.56;;;16.95;62.69
33151;BME280;19508;42.578;23.416;2023-07-29T01:10:51;93573.22;;;16.83;63.25
33151;BME280;19508;42.578;23.416;2023-07-29T01:13:40;93569.13;;;16.99;62.88
33151;BME280;19508;42.578;23.416;2023-07-29T01:16:21;93563.19;;;16.97;62.87
33151;BME280;19508;42.578;23.416;2023-07-29T01:18:50;93555.97;;;16.92;63.15
33151;BME280;19508;42.578;23.416;2023-07-29T01:21:18;93555.72;;;16.89;63.33
33151;BME280;19508;42.578;23.416;2023-07-29T01:23:44;93560.84;;;16.77;63.33
33151;BME280;19508;42.578;23.416;2023-07-29T01:26:10;93565.00;;;16.88;62.93
33151;BME280;19508;42.578;23.416;2023-07-29T01:28:35;93557.03;;;16.91;63.00
33151;BME280;19508;42.578;23.416;2023-07-29T01:31:10;93568.94;;;16.96;63.10
33151;BME280;19508;42.578;23.416;2023-07-29T01:36:34;93566.09;;;16.87;62.48
33151;BME280;19508;42.578;23.416;2023-07-29T01:39:05;93562.69;;;16.95;61.86
33151;BME280;19508;42.578;23.416;2023-07-29T01:41:30;93554.75;;;16.99;61.01
33151;BME280;19508;42.578;23.416;2023-07-29T01:43:57;93556.47;;;17.08;61.20
33151;BME280;19508;42.578;23.416;2023-07-29T01:46:22;93557.09;;;17.19;60.50
33151;BME280;19508;42.578;23.416;2023-07-29T01:48:48;93562.00;;;17.17;61.49
33151;BME280;19508;42.578;23.416;2023-07-29T01:51:14;93561.53;;;17.29;60.66
33151;BME280;19508;42.578;23.416;2023-07-29T01:53:40;93559.59;;;17.15;61.60
33151;BME280;19508;42.578;23.416;2023-07-29T01:56:05;93558.50;;;17.16;61.86
33151;BME280;19508;42.578;23.416;2023-07-29T01:58:31;93557.19;;;17.14;62.31
33151;BME280;19508;42.578;23.416;2023-07-29T02:00:56;93549.22;;;17.04;62.17
33151;BME280;19508;42.578;23.416;2023-07-29T02:03:21;93551.78;;;16.81;62.75
33151;BME280;19508;42.578;23.416;2023-07-29T02:05:47;93555.00;;;16.83;63.15
33151;BME280;19508;42.578;23.416;2023-07-29T02:08:12;93558.81;;;16.82;63.05
33151;BME280;19508;42.578;23.416;2023-07-29T02:10:39;93553.28;;;16.74;63.46
33151;BME280;19508;42.578;23.416;2023-07-29T02:13:04;93568.69;;;16.78;63.28
33151;BME280;19508;42.578;23.416;2023-07-29T02:15:30;93559.13;;;16.81;62.96
33151;BME280;19508;42.578;23.416;2023-07-29T02:17:55;93568.09;;;16.81;63.43
33151;BME280;19508;42.578;23.416;2023-07-29T02:20:21;93572.72;;;16.81;63.20
33151;BME280;19508;42.578;23.416;2023-07-29T02:22:46;93578.28;;;16.76;63.28
33151;BME280;19508;42.578;23.416;2023-07-29T02:25:13;93574.22;;;16.73;63.12
33151;BME280;19508;42.578;23.416;2023-07-29T02:27:39;93576.13;;;16.73;62.88
33151;BME280;19508;42.578;23.416;2023-07-29T02:30:05;93572.81;;;16.76;62.75
33151;BME280;19508;42.578;23.416;2023-07-29T02:32:31;93575.56;;;16.76;62.74
33151;BME280;19508;42.578;23.416;2023-07-29T02:34:56;93575.56;;;16.76;62.85
33151;BME280;19508;42.578;23.416;2023-07-29T02:37:21;93567.66;;;16.74;63.07
33151;BME280;19508;42.578;23.416;2023-07-29T02:39:47;93563.41;;;16.68;63.35
33151;BME280;19508;42.578;23.416;2023-07-29T02:42:12;93566.44;;;16.67;63.21
33151;BME280;19508;42.578;23.416;2023-07-29T02:44:39;93569.72;;;16.63;63.80
33151;BME280;19508;42.578;23.416;2023-07-29T02:47:05;93566.44;;;16.67;63.46
33151;BME280;19508;42.578;23.416;2023-07-29T02:49:30;93566.38;;;16.53;64.44
33151;BME280;19508;42.578;23.416;2023-07-29T02:51:56;93556.00;;;16.55;64.38
33151;BME280;19508;42.578;23.416;2023-07-29T02:54:21;93562.34;;;16.50;64.10
33151;BME280;19508;42.578;23.416;2023-07-29T02:56:46;93564.31;;;16.45;64.43
33151;BME280;19508;42.578;23.416;2023-07-29T02:59:12;93571.72;;;16.39;65.60
33151;BME280;19508;42.578;23.416;2023-07-29T03:01:37;93568.31;;;16.33;65.88
33151;BME280;19508;42.578;23.416;2023-07-29T03:04:03;93566.47;;;16.29;65.36
33151;BME280;19508;42.578;23.416;2023-07-29T03:06:28;93564.84;;;16.28;65.46
33151;BME280;19508;42.578;23.416;2023-07-29T03:08:54;93579.44;;;16.32;67.07
33151;BME280;19508;42.578;23.416;2023-07-29T03:11:19;93573.06;;;16.23;68.41
33151;BME280;19508;42.578;23.416;2023-07-29T03:13:45;93571.59;;;16.12;67.17
33151;BME280;19508;42.578;23.416;2023-07-29T03:16:13;93582.41;;;16.17;66.18
33151;BME280;19508;42.578;23.416;2023-07-29T03:18:40;93579.03;;;16.25;65.95
33151;BME280;19508;42.578;23.416;2023-07-29T03:21:05;93580.25;;;16.14;65.52
33151;BME280;19508;42.578;23.416;2023-07-29T03:23:32;93579.69;;;16.17;65.86
33151;BME280;19508;42.578;23.416;2023-07-29T03:25:59;93573.00;;;16.28;65.58
33151;BME280;19508;42.578;23.416;2023-07-29T03:28:32;93583.19;;;16.36;65.27
33151;BME280;19508;42.578;23.416;2023-07-29T03:30:58;93594.00;;;16.41;65.55
33151;BME280;19508;42.578;23.416;2023-07-29T03:33:25;93590.31;;;16.32;65.86
33151;BME280;19508;42.578;23.416;2023-07-29T03:35:51;93591.72;;;16.29;66.11
33151;BME280;19508;42.578;23.416;2023-07-29T03:38:16;93579.53;;;16.27;65.87
33151;BME280;19508;42.578;23.416;2023-07-29T03:40:42;93583.94;;;16.23;66.29
33151;BME280;19508;42.578;23.416;2023-07-29T03:43:08;93585.13;;;16.17;66.47
33151;BME280;19508;42.578;23.416;2023-07-29T03:45:34;93582.25;;;16.27;66.58
33151;BME280;19508;42.578;23.416;2023-07-29T03:48:01;93585.97;;;16.31;66.49
33151;BME280;19508;42.578;23.416;2023-07-29T03:50:27;93584.72;;;16.23;66.24
33151;BME280;19508;42.578;23.416;2023-07-29T03:52:53;93587.03;;;16.16;66.75
33151;BME280;19508;42.578;23.416;2023-07-29T03:55:18;93586.75;;;16.18;66.48
33151;BME280;19508;42.578;23.416;2023-07-29T03:57:44;93585.84;;;16.41;66.21
33151;BME280;19508;42.578;23.416;2023-07-29T04:00:09;93577.03;;;16.49;66.04
33151;BME280;19508;42.578;23.416;2023-07-29T04:02:35;93575.31;;;16.53;66.03
33151;BME280;19508;42.578;23.416;2023-07-29T04:05:03;93575.94;;;16.50;66.29
33151;BME280;19508;42.578;23.416;2023-07-29T04:07:29;93592.63;;;16.57;66.05
33151;BME280;19508;42.578;23.416;2023-07-29T04:09:55;93587.75;;;16.59;65.91
33151;BME280;19508;42.578;23.416;2023-07-29T04:12:20;93591.44;;;16.69;65.72
33151;BME280;19508;42.578;23.416;2023-07-29T04:14:47;93585.00;;;16.78;65.86
33151;BME280;19508;42.578;23.416;2023-07-29T04:17:12;93585.88;;;17.06;64.77
33151;BME280;19508;42.578;23.416;2023-07-29T04:19:37;93579.28;;;17.26;64.55
33151;BME280;19508;42.578;23.416;2023-07-29T04:22:03;93587.56;;;17.48;63.64
33151;BME280;19508;42.578;23.416;2023-07-29T04:24:28;93588.16;;;17.59;62.44
33151;BME280;19508;42.578;23.416;2023-07-29T04:26:54;93580.09;;;17.68;61.92
33151;BME280;19508;42.578;23.416;2023-07-29T04:29:20;93594.44;;;17.87;61.68
33151;BME280;19508;42.578;23.416;2023-07-29T04:31:46;93584.53;;;18.05;61.48
33151;BME280;19508;42.578;23.416;2023-07-29T04:34:11;93589.91;;;18.32;61.16
33151;BME280;19508;42.578;23.416;2023-07-29T04:36:37;93583.63;;;18.46;60.03
33151;BME280;19508;42.578;23.416;2023-07-29T04:39:02;93591.63;;;18.65;60.31
33151;BME280;19508;42.578;23.416;2023-07-29T04:41:27;93591.03;;;18.68;59.59
33151;BME280;19508;42.578;23.416;2023-07-29T04:43:53;93586.28;;;18.73;59.63
33151;BME280;19508;42.578;23.416;2023-07-29T04:46:18;93584.28;;;18.87;58.86
33151;BME280;19508;42.578;23.416;2023-07-29T04:48:44;93593.59;;;19.09;58.84
33151;BME280;19508;42.578;23.416;2023-07-29T04:51:09;93592.56;;;19.27;58.33
33151;BME280;19508;42.578;23.416;2023-07-29T04:53:34;93594.13;;;19.51;58.09
33151;BME280;19508;42.578;23.416;2023-07-29T04:56:02;93588.44;;;19.69;58.04
33151;BME280;19508;42.578;23.416;2023-07-29T04:58:27;93596.38;;;19.88;57.15
33151;BME280;19508;42.578;23.416;2023-07-29T05:00:55;93595.84;;;20.26;56.85
33151;BME280;19508;42.578;23.416;2023-07-29T05:03:20;93591.88;;;20.58;55.21
33151;BME280;19508;42.578;23.416;2023-07-29T05:05:46;93593.16;;;21.12;53.63
33151;BME280;19508;42.578;23.416;2023-07-29T05:08:11;93595.75;;;21.73;51.87
33151;BME280;19508;42.578;23.416;2023-07-29T05:10:37;93588.38;;;22.33;50.93
33151;BME280;19508;42.578;23.416;2023-07-29T05:13:02;93596.47;;;23.00;47.98
33151;BME280;19508;42.578;23.416;2023-07-29T05:15:27;93596.03;;;23.89;46.84
33151;BME280;19508;42.578;23.416;2023-07-29T05:17:53;93591.13;;;24.43;45.04
33151;BME280;19508;42.578;23.416;2023-07-29T05:20:18;93591.94;;;25.09;43.80
33151;BME280;19508;42.578;23.416;2023-07-29T05:22:44;93588.69;;;25.47;43.06
33151;BME280;19508;42.578;23.416;2023-07-29T05:25:09;93593.03;;;25.92;42.10
33151;BME280;19508;42.578;23.416;2023-07-29T05:27:35;93600.88;;;25.90;42.01
33151;BME280;19508;42.578;23.416;2023-07-29T05:30:00;93589.94;;;26.09;41.76
33151;BME280;19508;42.578;23.416;2023-07-29T05:32:26;93598.09;;;26.05;41.31
33151;BME280;19508;42.578;23.416;2023-07-29T05:34:51;93603.63;;;26.05;41.64
33151;BME280;19508;42.578;23.416;2023-07-29T05:37:16;93592.59;;;26.05;41.91
33151;BME280;19508;42.578;23.416;2023-07-29T05:39:42;93603.28;;;26.07;41.78
33151;BME280;19508;42.578;23.416;2023-07-29T05:42:07;93603.53;;;26.02;41.78
33151;BME280;19508;42.578;23.416;2023-07-29T05:44:33;93609.88;;;26.18;41.94
33151;BME280;19508;42.578;23.416;2023-07-29T05:46:58;93608.78;;;26.23;42.29
33151;BME280;19508;42.578;23.416;2023-07-29T05:49:24;93610.66;;;26.03;43.22
33151;BME280;19508;42.578;23.416;2023-07-29T05:51:49;93617.75;;;25.88;42.66
33151;BME280;19508;42.578;23.416;2023-07-29T05:54:17;93619.28;;;26.01;42.49
33151;BME280;19508;42.578;23.416;2023-07-29T05:56:43;93617.34;;;26.18;43.21
33151;BME280;19508;42.578;23.416;2023-07-29T05:59:08;93617.88;;;26.07;42.24
33151;BME280;19508;42.578;23.416;2023-07-29T06:01:34;93615.31;;;26.46;41.62
33151;BME280;19508;42.578;23.416;2023-07-29T06:04:00;93613.97;;;26.40;41.35
33151;BME280;19508;42.578;23.416;2023-07-29T06:06:25;93611.72;;;26.30;41.76
33151;BME280;19508;42.578;23.416;2023-07-29T06:08:51;93616.06;;;26.31;41.89
33151;BME280;19508;42.578;23.416;2023-07-29T06:11:16;93623.19;;;26.32;42.77
33151;BME280;19508;42.578;23.416;2023-07-29T06:13:42;93621.44;;;26.24;42.55
33151;BME280;19508;42.578;23.416;2023-07-29T06:16:07;93615.47;;;26.37;41.70
33151;BME280;19508;42.578;23.416;2023-07-29T06:18:32;93618.50;;;26.32;42.31
33151;BME280;19508;42.578;23.416;2023-07-29T06:20:58;93618.41;;;26.60;41.66
33151;BME280;19508;42.578;23.416;2023-07-29T06:23:23;93614.47;;;27.32;40.54
33151;BME280;19508;42.578;23.416;2023-07-29T06:25:48;93613.88;;;27.42;40.21
33151;BME280;19508;42.578;23.416;2023-07-29T06:28:14;93614.13;;;27.95;38.96
33151;BME280;19508;42.578;23.416;2023-07-29T06:30:39;93611.50;;;28.25;37.40
33151;BME280;19508;42.578;23.416;2023-07-29T06:33:05;93608.75;;;28.48;37.26
33151;BME280;19508;42.578;23.416;2023-07-29T06:35:31;93602.66;;;29.18;35.71
33151;BME280;19508;42.578;23.416;2023-07-29T06:37:57;93596.44;;;29.28;36.13
33151;BME280;19508;42.578;23.416;2023-07-29T06:40:22;93592.22;;;29.08;36.07
33151;BME280;19508;42.578;23.416;2023-07-29T06:42:47;93588.28;;;29.09;35.44
33151;BME280;19508;42.578;23.416;2023-07-29T06:45:13;93586.34;;;30.14;34.07
33151;BME280;19508;42.578;23.416;2023-07-29T06:47:38;93587.88;;;30.55;32.92
33151;BME280;19508;42.578;23.416;2023-07-29T06:50:04;93577.31;;;31.37;33.16
33151;BME280;19508;42.578;23.416;2023-07-29T06:52:30;93582.72;;;32.07;32.55
33151;BME280;19508;42.578;23.416;2023-07-29T06:54:55;93589.94;;;32.61;30.56
33151;BME280;19508;42.578;23.416;2023-07-29T06:57:20;93571.56;;;33.17;29.37
33151;BME280;19508;42.578;23.416;2023-07-29T06:59:46;93577.53;;;33.26;27.42
33151;BME280;19508;42.578;23.416;2023-07-29T07:02:11;93567.25;;;34.04;27.28
33151;BME280;19508;42.578;23.416;2023-07-29T07:04:37;93572.00;;;34.10;27.52
33151;BME280;19508;42.578;23.416;2023-07-29T07:07:02;93564.53;;;33.89;27.36
33151;BME280;19508;42.578;23.416;2023-07-29T07:09:28;93567.38;;;33.75;28.16
33151;BME280;19508;42.578;23.416;2023-07-29T07:11:53;93564.13;;;33.94;28.28
33151;BME280;19508;42.578;23.416;2023-07-29T07:14:18;93572.91;;;33.82;28.64
33151;BME280;19508;42.578;23.416;2023-07-29T07:16:44;93573.78;;;34.45;27.61
33151;BME280;19508;42.578;23.416;2023-07-29T07:19:10;93569.59;;;34.12;29.29
33151;BME280;19508;42.578;23.416;2023-07-29T07:21:35;93574.69;;;33.48;30.29
33151;BME280;19508;42.578;23.416;2023-07-29T07:24:01;93566.69;;;33.53;29.46
33151;BME280;19508;42.578;23.416;2023-07-29T07:26:26;93568.06;;;34.01;29.60
33151;BME280;19508;42.578;23.416;2023-07-29T07:28:52;93561.72;;;33.97;29.67
33151;BME280;19508;42.578;23.416;2023-07-29T07:31:17;93578.78;;;32.97;30.66
33151;BME280;19508;42.578;23.416;2023-07-29T07:33:42;93571.59;;;33.03;30.91
33151;BME280;19508;42.578;23.416;2023-07-29T07:36:08;93569.06;;;31.62;31.92
33151;BME280;19508;42.578;23.416;2023-07-29T07:38:33;93569.81;;;31.45;32.23
33151;BME280;19508;42.578;23.416;2023-07-29T07:40:59;93570.69;;;31.70;32.61
33151;BME280;19508;42.578;23.416;2023-07-29T07:43:24;93565.03;;;31.46;32.16
33151;BME280;19508;42.578;23.416;2023-07-29T07:45:51;93570.09;;;31.26;31.72
33151;BME280;19508;42.578;23.416;2023-07-29T07:48:16;93568.91;;;31.27;31.17
33151;BME280;19508;42.578;23.416;2023-07-29T07:50:43;93571.28;;;30.63;32.25
33151;BME280;19508;42.578;23.416;2023-07-29T07:53:08;93579.91;;;30.50;31.91
33151;BME280;19508;42.578;23.416;2023-07-29T07:55:34;93576.38;;;30.53;37.01
33151;BME280;19508;42.578;23.416;2023-07-29T07:57:59;93563.50;;;30.31;33.51
33151;BME280;19508;42.578;23.416;2023-07-29T08:00:24;93566.91;;;30.61;31.87
33151;BME280;19508;42.578;23.416;2023-07-29T08:02:50;93565.66;;;30.55;32.00
33151;BME280;19508;42.578;23.416;2023-07-29T08:05:15;93561.47;;;30.76;30.69
33151;BME280;19508;42.578;23.416;2023-07-29T08:07:40;93566.38;;;31.00;32.02
33151;BME280;19508;42.578;23.416;2023-07-29T08:10:06;93559.13;;;30.85;34.39
33151;BME280;19508;42.578;23.416;2023-07-29T08:12:32;93572.00;;;31.14;31.26
33151;BME280;19508;42.578;23.416;2023-07-29T08:14:57;93567.91;;;30.87;30.64
33151;BME280;19508;42.578;23.416;2023-07-29T08:17:23;93575.59;;;31.11;31.88
33151;BME280;19508;42.578;23.416;2023-07-29T08:19:48;93572.66;;;30.90;31.41
33151;BME280;19508;42.578;23.416;2023-07-29T08:22:14;93583.81;;;30.94;30.89
33151;BME280;19508;42.578;23.416;2023-07-29T08:24:42;93575.94;;;31.06;30.52
33151;BME280;19508;42.578;23.416;2023-07-29T08:27:07;93582.06;;;31.30;30.81
33151;BME280;19508;42.578;23.416;2023-07-29T08:29:33;93575.38;;;31.45;32.53
33151;BME280;19508;42.578;23.416;2023-07-29T08:31:58;93581.03;;;31.73;30.10
33151;BME280;19508;42.578;23.416;2023-07-29T08:34:23;93573.16;;;31.97;32.51
33151;BME280;19508;42.578;23.416;2023-07-29T08:36:49;93578.53;;;31.36;31.14
33151;BME280;19508;42.578;23.416;2023-07-29T08:39:14;93569.06;;;31.69;31.24
33151;BME280;19508;42.578;23.416;2023-07-29T08:44:21;93566.47;;;31.14;30.85
33151;BME280;19508;42.578;23.416;2023-07-29T08:46:50;93574.91;;;31.29;33.39
33151;BME280;19508;42.578;23.416;2023-07-29T08:49:18;93578.63;;;31.68;29.33
33151;BME280;19508;42.578;23.416;2023-07-29T08:51:45;93560.34;;;31.75;31.37
33151;BME280;19508;42.578;23.416;2023-07-29T08:54:11;93563.63;;;31.98;29.85
33151;BME280;19508;42.578;23.416;2023-07-29T08:56:38;93568.34;;;31.87;29.40
33151;BME280;19508;42.578;23.416;2023-07-29T08:59:04;93568.38;;;32.05;29.52
33151;BME280;19508;42.578;23.416;2023-07-29T09:01:30;93565.22;;;32.20;27.91
33151;BME280;19508;42.578;23.416;2023-07-29T09:03:56;93558.91;;;32.45;28.37
33151;BME280;19508;42.578;23.416;2023-07-29T09:06:23;93559.63;;;31.95;28.30
33151;BME280;19508;42.578;23.416;2023-07-29T09:08:53;93557.19;;;31.72;29.47
33151;BME280;19508;42.578;23.416;2023-07-29T09:11:19;93560.44;;;32.21;29.42
33151;BME280;19508;42.578;23.416;2023-07-29T09:13:45;93540.56;;;32.26;27.34
33151;BME280;19508;42.578;23.416;2023-07-29T09:16:11;93552.44;;;31.77;28.18
33151;BME280;19508;42.578;23.416;2023-07-29T09:18:38;93558.06;;;32.05;28.31
33151;BME280;19508;42.578;23.416;2023-07-29T09:21:04;93553.28;;;31.98;27.43
33151;BME280;19508;42.578;23.416;2023-07-29T09:23:39;93550.91;;;32.11;28.21
33151;BME280;19508;42.578;23.416;2023-07-29T09:26:06;93536.59;;;32.27;27.42
33151;BME280;19508;42.578;23.416;2023-07-29T09:28:36;93546.16;;;32.37;27.89
33151;BME280;19508;42.578;23.416;2023-07-29T09:31:02;93549.34;;;32.39;26.79
33151;BME280;19508;42.578;23.416;2023-07-29T09:33:29;93546.16;;;32.54;25.28
33151;BME280;19508;42.578;23.416;2023-07-29T09:35:54;93545.38;;;32.50;27.98
33151;BME280;19508;42.578;23.416;2023-07-29T09:38:28;93540.59;;;32.51;26.94
33151;BME280;19508;42.578;23.416;2023-07-29T09:40:55;93533.41;;;32.46;27.73
33151;BME280;19508;42.578;23.416;2023-07-29T09:43:25;93531.44;;;32.47;26.22
33151;BME280;19508;42.578;23.416;2023-07-29T09:45:51;93530.97;;;32.98;29.14
33151;BME280;19508;42.578;23.416;2023-07-29T09:48:22;93530.97;;;33.02;26.19
33151;BME280;19508;42.578;23.416;2023-07-29T09:50:48;93530.13;;;33.12;26.13
33151;BME280;19508;42.578;23.416;2023-07-29T09:53:14;93526.22;;;32.99;25.78
33151;BME280;19508;42.578;23.416;2023-07-29T09:55:39;93531.03;;;32.66;25.67
33151;BME280;19508;42.578;23.416;2023-07-29T09:58:05;93511.88;;;32.90;26.41
33151;BME280;19508;42.578;23.416;2023-07-29T10:00:33;93515.28;;;33.47;24.74
33151;BME280;19508;42.578;23.416;2023-07-29T10:03:00;93513.03;;;33.10;23.68
33151;BME280;19508;42.578;23.416;2023-07-29T10:05:27;93502.25;;;33.12;24.17
33151;BME280;19508;42.578;23.416;2023-07-29T10:07:54;93502.00;;;33.69;24.06
33151;BME280;19508;42.578;23.416;2023-07-29T10:10:20;93505.19;;;33.71;23.55
33151;BME280;19508;42.578;23.416;2023-07-29T10:12:46;93503.13;;;33.82;26.55
33151;BME280;19508;42.578;23.416;2023-07-29T10:15:12;93500.50;;;33.54;24.47
33151;BME280;19508;42.578;23.416;2023-07-29T10:17:39;93500.03;;;33.70;25.65
33151;BME280;19508;42.578;23.416;2023-07-29T10:20:10;93492.28;;;33.18;23.78
33151;BME280;19508;42.578;23.416;2023-07-29T10:22:38;93491.38;;;33.46;23.63
33151;BME280;19508;42.578;23.416;2023-07-29T10:25:16;93494.19;;;33.32;25.37
33151;BME280;19508;42.578;23.416;2023-07-29T10:27:58;93482.97;;;33.50;25.65
33151;BME280;19508;42.578;23.416;2023-07-29T10:30:28;93484.47;;;33.65;24.50
33151;BME280;19508;42.578;23.416;2023-07-29T10:32:55;93481.44;;;33.42;24.46
33151;BME280;19508;42.578;23.416;2023-07-29T10:35:23;93476.50;;;33.67;21.91
33151;BME280;19508;42.578;23.416;2023-07-29T10:37:48;93472.09;;;33.66;24.98
33151;BME280;19508;42.578;23.416;2023-07-29T10:40:16;93468.91;;;33.71;22.86
33151;BME280;19508;42.578;23.416;2023-07-29T10:43:03;93468.63;;;33.48;23.21
33151;BME280;19508;42.578;23.416;2023-07-29T10:45:37;93465.22;;;33.88;22.87
33151;BME280;19508;42.578;23.416;2023-07-29T10:48:13;93464.28;;;34.06;23.73
33151;BME280;19508;42.578;23.416;2023-07-29T10:50:39;93453.28;;;33.81;22.86
33151;BME280;19508;42.578;23.416;2023-07-29T10:53:04;93456.00;;;33.91;22.09
33151;BME280;19508;42.578;23.416;2023-07-29T10:55:36;93459.41;;;33.61;22.89
33151;BME280;19508;42.578;23.416;2023-07-29T10:58:16;93447.59;;;33.99;23.60
33151;BME280;19508;42.578;23.416;2023-07-29T11:00:46;93451.53;;;34.05;22.66
33151;BME280;19508;42.578;23.416;2023-07-29T11:03:13;93446.00;;;33.98;23.65
33151;BME280;19508;42.578;23.416;2023-07-29T11:05:49;93440.16;;;34.26;23.02
33151;BME280;19508;42.578;23.416;2023-07-29T11:08:28;93444.59;;;34.23;22.72
33151;BME280;19508;42.578;23.416;2023-07-29T11:11:01;93434.66;;;34.19;23.44
33151;BME280;19508;42.578;23.416;2023-07-29T11:13:28;93437.00;;;34.24;22.81
33151;BME280;19508;42.578;23.416;2023-07-29T11:15:54;93440.09;;;34.33;23.17
33151;BME280;19508;42.578;23.416;2023-07-29T11:18:20;93439.41;;;34.22;23.35
33151;BME280;19508;42.578;23.416;2023-07-29T11:20:46;93430.16;;;33.80;23.36
33151;BME280;19508;42.578;23.416;2023-07-29T11:23:13;93434.66;;;34.19;25.25
33151;BME280;19508;42.578;23.416;2023-07-29T11:25:39;93429.06;;;34.19;23.62
33151;BME280;19508;42.578;23.416;2023-07-29T11:28:04;93430.03;;;34.02;23.40
33151;BME280;19508;42.578;23.416;2023-07-29T11:30:30;93427.59;;;34.04;23.54
33151;BME280;19508;42.578;23.416;2023-07-29T11:32:57;93436.19;;;34.27;23.32
33151;BME280;19508;42.578;23.416;2023-07-29T11:35:23;93428.63;;;33.72;23.94
33151;BME280;19508;42.578;23.416;2023-07-29T11:37:50;93430.19;;;34.29;22.80
33151;BME280;19508;42.578;23.416;2023-07-29T11:40:18;93423.88;;;34.62;26.71
33151;BME280;19508;42.578;23.416;2023-07-29T11:42:45;93419.81;;;34.67;23.17
33151;BME280;19508;42.578;23.416;2023-07-29T11:45:12;93416.63;;;35.02;22.29
33151;BME280;19508;42.578;23.416;2023-07-29T11:47:38;93412.81;;;34.89;21.94
33151;BME280;19508;42.578;23.416;2023-07-29T11:50:08;93415.22;;;34.87;23.05
33151;BME280;19508;42.578;23.416;2023-07-29T11:52:36;93409.00;;;34.72;22.28
33151;BME280;19508;42.578;23.416;2023-07-29T11:55:03;93414.28;;;34.63;22.68
33151;BME280;19508;42.578;23.416;2023-07-29T11:57:37;93408.13;;;34.79;22.72
33151;BME280;19508;42.578;23.416;2023-07-29T12:00:07;93400.41;;;34.87;22.07
33151;BME280;19508;42.578;23.416;2023-07-29T12:02:38;93403.28;;;35.17;24.50
33151;BME280;19508;42.578;23.416;2023-07-29T12:05:05;93405.00;;;35.08;22.83
33151;BME280;19508;42.578;23.416;2023-07-29T12:07:31;93398.84;;;34.89;24.97
33151;BME280;19508;42.578;23.416;2023-07-29T12:09:58;93395.94;;;35.27;24.87
33151;BME280;19508;42.578;23.416;2023-07-29T12:12:24;93391.00;;;35.08;25.20
33151;BME280;19508;42.578;23.416;2023-07-29T12:14:50;93387.34;;;34.80;23.79
33151;BME280;19508;42.578;23.416;2023-07-29T12:17:15;93386.94;;;34.78;22.81
33151;BME280;19508;42.578;23.416;2023-07-29T12:19:41;93387.38;;;34.76;22.15
33151;BME280;19508;42.578;23.416;2023-07-29T12:22:09;93379.88;;;34.70;22.35
33151;BME280;19508;42.578;23.416;2023-07-29T12:24:39;93391.09;;;34.66;22.33
33151;BME280;19508;42.578;23.416;2023-07-29T12:27:09;93379.19;;;34.59;22.56
33151;BME280;19508;42.578;23.416;2023-07-29T12:29:40;93379.91;;;34.66;22.96
33151;BME280;19508;42.578;23.416;2023-07-29T12:32:06;93384.91;;;34.82;22.88
33151;BME280;19508;42.578;23.416;2023-07-29T12:34:32;93384.84;;;34.89;22.98
33151;BME280;19508;42.578;23.416;2023-07-29T12:36:58;93380.25;;;35.06;22.15
33151;BME280;19508;42.578;23.416;2023-07-29T12:39:30;93384.00;;;35.23;22.56
33151;BME280;19508;42.578;23.416;2023-07-29T12:41:57;93387.53;;;35.57;21.89
33151;BME280;19508;42.578;23.416;2023-07-29T12:44:24;93379.91;;;35.31;21.75
33151;BME280;19508;42.578;23.416;2023-07-29T12:46:49;93381.78;;;35.68;21.88
33151;BME280;19508;42.578;23.416;2023-07-29T12:49:15;93373.00;;;37.03;20.00
33151;BME280;19508;42.578;23.416;2023-07-29T12:51:41;93378.47;;;37.10;19.84
33151;BME280;19508;42.578;23.416;2023-07-29T12:54:06;93377.72;;;38.76;19.27
33151;BME280;19508;42.578;23.416;2023-07-29T12:56:32;93369.19;;;39.21;19.66